sensor_id;sensor_type;location;lat;lon;timestamp;P1;durP1;ratioP1;P2;durP2;ratioP2
9970;SDS011;5026;51.494;11.974;2023-09-19T00:02:25;1.67;;;1.58;;
9970;SDS011;5026;51.494;11.974;2023-09-19T00:04:52;3.00;;;1.58;;
9970;SDS011;5026;51.494;11.974;2023-09-19T00:07:19;3.17;;;1.25;;
9970;SDS011;5026;51.494;11.974;2023-09-19T00:09:46;3.15;;;1.48;;
9970;SDS011;5026;51.494;11.974;2023-09-19T00:12:13;4.07;;;1.38;;
9970;SDS011;5026;51.494;11.974;2023-09-19T00:14:40;1.95;;;1.70;;
9970;SDS011;5026;51.494;11.974;2023-09-19T00:17:09;2.85;;;1.55;;
9970;SDS011;5026;51.494;11.974;2023-09-19T00:19:36;1.80;;;1.70;;
9970;SDS011;5026;51.494;11.974;2023-09-19T00:22:03;2.10;;;1.70;;
9970;SDS011;5026;51.494;11.974;2023-09-19T00:24:30;2.50;;;1.65;;
9970;SDS011;5026;51.494;11.974;2023-09-19T00:26:57;1.70;;;1.60;;
9970;SDS011;5026;51.494;11.974;2023-09-19T00:29:24;3.33;;;1.75;;
9970;SDS011;5026;51.494;11.974;2023-09-19T00:31:54;4.70;;;1.60;;
9970;SDS011;5026;51.494;11.974;2023-09-19T00:34:23;4.85;;;1.58;;
9970;SDS011;5026;51.494;11.974;2023-09-19T00:36:50;3.13;;;1.95;;
9970;SDS011;5026;51.494;11.974;2023-09-19T00:39:19;2.47;;;1.35;;
9970;SDS011;5026;51.494;11.974;2023-09-19T00:41:47;2.58;;;1.63;;
9970;SDS011;5026;51.494;11.974;2023-09-19T00:44:14;2.17;;;1.60;;
9970;SDS011;5026;51.494;11.974;2023-09-19T00:46:42;2.60;;;1.63;;
9970;SDS011;5026;51.494;11.974;2023-09-19T00:49:12;2.72;;;1.67;;
9970;SDS011;5026;51.494;11.974;2023-09-19T00:51:41;3.58;;;1.90;;
9970;SDS011;5026;51.494;11.974;2023-09-19T00:54:12;2.38;;;1.63;;
9970;SDS011;5026;51.494;11.974;2023-09-19T00:56:43;3.33;;;1.80;;
9970;SDS011;5026;51.494;11.974;2023-09-19T00:59:11;3.90;;;1.98;;
9970;SDS011;5026;51.494;11.974;2023-09-19T01:01:38;3.63;;;2.10;;
9970;SDS011;5026;51.494;11.974;2023-09-19T01:04:05;1.60;;;1.50;;
9970;SDS011;5026;51.494;11.974;2023-09-19T01:06:33;2.90;;;2.13;;
9970;SDS011;5026;51.494;11.974;2023-09-19T01:09:03;5.25;;;1.92;;
9970;SDS011;5026;51.494;11.974;2023-09-19T01:11:32;2.47;;;1.70;;
9970;SDS011;5026;51.494;11.974;2023-09-19T01:14:08;3.35;;;2.00;;
9970;SDS011;5026;51.494;11.974;2023-09-19T01:16:45;1.88;;;1.77;;
9970;SDS011;5026;51.494;11.974;2023-09-19T01:22:16;2.50;;;1.90;;
9970;SDS011;5026;51.494;11.974;2023-09-19T01:25:03;2.60;;;1.67;;
9970;SDS011;5026;51.494;11.974;2023-09-19T01:27:56;4.15;;;2.08;;
9970;SDS011;5026;51.494;11.974;2023-09-19T01:30:43;3.22;;;2.15;;
9970;SDS011;5026;51.494;11.974;2023-09-19T01:33:10;4.32;;;2.17;;
9970;SDS011;5026;51.494;11.974;2023-09-19T01:35:37;4.00;;;2.20;;
9970;SDS011;5026;51.494;11.974;2023-09-19T01:38:05;2.70;;;1.88;;
9970;SDS011;5026;51.494;11.974;2023-09-19T01:40:36;2.70;;;1.70;;
9970;SDS011;5026;51.494;11.974;2023-09-19T01:43:10;2.47;;;1.67;;
9970;SDS011;5026;51.494;11.974;2023-09-19T01:45:46;2.25;;;2.00;;
9970;SDS011;5026;51.494;11.974;2023-09-19T01:48:22;5.57;;;2.10;;
9970;SDS011;5026;51.494;11.974;2023-09-19T01:50:59;1.98;;;1.58;;
9970;SDS011;5026;51.494;11.974;2023-09-19T01:53:28;2.65;;;1.70;;
9970;SDS011;5026;51.494;11.974;2023-09-19T01:56:02;1.95;;;1.67;;
9970;SDS011;5026;51.494;11.974;2023-09-19T01:58:39;2.35;;;1.50;;
9970;SDS011;5026;51.494;11.974;2023-09-19T02:01:14;2.10;;;1.50;;
9970;SDS011;5026;51.494;11.974;2023-09-19T02:03:45;1.52;;;1.40;;
9970;SDS011;5026;51.494;11.974;2023-09-19T02:06:13;4.78;;;1.75;;
9970;SDS011;5026;51.494;11.974;2023-09-19T02:08:41;2.85;;;1.17;;
9970;SDS011;5026;51.494;11.974;2023-09-19T02:11:08;2.47;;;1.60;;
9970;SDS011;5026;51.494;11.974;2023-09-19T02:13:34;4.20;;;1.75;;
9970;SDS011;5026;51.494;11.974;2023-09-19T02:16:02;1.60;;;1.50;;
9970;SDS011;5026;51.494;11.974;2023-09-19T02:18:32;2.13;;;1.60;;
9970;SDS011;5026;51.494;11.974;2023-09-19T02:21:00;2.80;;;1.40;;
9970;SDS011;5026;51.494;11.974;2023-09-19T02:23:29;1.67;;;1.52;;
9970;SDS011;5026;51.494;11.974;2023-09-19T02:25:56;2.58;;;1.45;;
9970;SDS011;5026;51.494;11.974;2023-09-19T02:28:25;1.88;;;1.45;;
9970;SDS011;5026;51.494;11.974;2023-09-19T02:30:55;5.88;;;1.50;;
9970;SDS011;5026;51.494;11.974;2023-09-19T02:33:22;3.67;;;1.75;;
9970;SDS011;5026;51.494;11.974;2023-09-19T02:35:50;3.53;;;1.92;;
9970;SDS011;5026;51.494;11.974;2023-09-19T02:38:22;3.08;;;1.50;;
9970;SDS011;5026;51.494;11.974;2023-09-19T02:40:50;2.25;;;1.20;;
9970;SDS011;5026;51.494;11.974;2023-09-19T02:43:17;1.83;;;1.55;;
9970;SDS011;5026;51.494;11.974;2023-09-19T02:45:44;1.67;;;1.55;;
9970;SDS011;5026;51.494;11.974;2023-09-19T02:48:14;1.50;;;1.40;;
9970;SDS011;5026;51.494;11.974;2023-09-19T02:50:42;1.83;;;1.30;;
9970;SDS011;5026;51.494;11.974;2023-09-19T02:53:11;3.78;;;1.40;;
9970;SDS011;5026;51.494;11.974;2023-09-19T02:55:39;2.38;;;1.50;;
9970;SDS011;5026;51.494;11.974;2023-09-19T02:58:06;2.08;;;1.33;;
9970;SDS011;5026;51.494;11.974;2023-09-19T03:00:36;5.32;;;1.65;;
9970;SDS011;5026;51.494;11.974;2023-09-19T03:03:03;2.47;;;1.40;;
9970;SDS011;5026;51.494;11.974;2023-09-19T03:05:33;1.50;;;1.40;;
9970;SDS011;5026;51.494;11.974;2023-09-19T03:08:00;2.78;;;1.38;;
9970;SDS011;5026;51.494;11.974;2023-09-19T03:10:29;1.73;;;1.45;;
9970;SDS011;5026;51.494;11.974;2023-09-19T03:12:56;4.15;;;1.70;;
9970;SDS011;5026;51.494;11.974;2023-09-19T03:15:24;2.13;;;1.35;;
9970;SDS011;5026;51.494;11.974;2023-09-19T03:17:52;3.65;;;1.40;;
9970;SDS011;5026;51.494;11.974;2023-09-19T03:20:19;4.30;;;1.52;;
9970;SDS011;5026;51.494;11.974;2023-09-19T03:22:46;2.08;;;1.40;;
9970;SDS011;5026;51.494;11.974;2023-09-19T03:25:14;5.88;;;1.35;;
9970;SDS011;5026;51.494;11.974;2023-09-19T03:27:43;5.15;;;1.65;;
9970;SDS011;5026;51.494;11.974;2023-09-19T03:30:11;2.63;;;1.42;;
9970;SDS011;5026;51.494;11.974;2023-09-19T03:32:43;2.00;;;1.33;;
9970;SDS011;5026;51.494;11.974;2023-09-19T03:35:11;2.55;;;1.48;;
9970;SDS011;5026;51.494;11.974;2023-09-19T03:37:39;1.58;;;1.35;;
9970;SDS011;5026;51.494;11.974;2023-09-19T03:40:06;4.40;;;1.42;;
9970;SDS011;5026;51.494;11.974;2023-09-19T03:42:37;1.77;;;1.40;;
9970;SDS011;5026;51.494;11.974;2023-09-19T03:45:07;1.70;;;1.30;;
9970;SDS011;5026;51.494;11.974;2023-09-19T03:47:37;1.40;;;1.30;;
9970;SDS011;5026;51.494;11.974;2023-09-19T03:50:04;2.33;;;1.67;;
9970;SDS011;5026;51.494;11.974;2023-09-19T03:52:32;2.58;;;1.30;;
9970;SDS011;5026;51.494;11.974;2023-09-19T03:54:59;1.85;;;1.52;;
9970;SDS011;5026;51.494;11.974;2023-09-19T03:57:27;4.00;;;1.88;;
9970;SDS011;5026;51.494;11.974;2023-09-19T03:59:54;2.83;;;1.63;;
9970;SDS011;5026;51.494;11.974;2023-09-19T04:02:22;1.50;;;1.40;;
9970;SDS011;5026;51.494;11.974;2023-09-19T04:04:50;1.67;;;1.38;;
9970;SDS011;5026;51.494;11.974;2023-09-19T04:07:17;1.92;;;1.48;;
9970;SDS011;5026;51.494;11.974;2023-09-19T04:09:47;2.42;;;1.63;;
9970;SDS011;5026;51.494;11.974;2023-09-19T04:12:14;3.25;;;1.60;;
9970;SDS011;5026;51.494;11.974;2023-09-19T04:14:43;2.90;;;1.55;;
9970;SDS011;5026;51.494;11.974;2023-09-19T04:17:09;3.53;;;1.40;;
9970;SDS011;5026;51.494;11.974;2023-09-19T04:19:38;2.40;;;1.67;;
9970;SDS011;5026;51.494;11.974;2023-09-19T04:22:06;3.15;;;1.50;;
9970;SDS011;5026;51.494;11.974;2023-09-19T04:24:33;1.65;;;1.45;;
9970;SDS011;5026;51.494;11.974;2023-09-19T04:27:00;3.00;;;1.50;;
9970;SDS011;5026;51.494;11.974;2023-09-19T04:29:27;2.90;;;1.52;;
9970;SDS011;5026;51.494;11.974;2023-09-19T04:31:55;2.88;;;1.67;;
9970;SDS011;5026;51.494;11.974;2023-09-19T04:34:22;4.32;;;1.75;;
9970;SDS011;5026;51.494;11.974;2023-09-19T04:36:51;2.63;;;1.63;;
9970;SDS011;5026;51.494;11.974;2023-09-19T04:39:18;1.90;;;1.40;;
9970;SDS011;5026;51.494;11.974;2023-09-19T04:41:46;3.20;;;1.63;;
9970;SDS011;5026;51.494;11.974;2023-09-19T04:44:13;3.33;;;1.85;;
9970;SDS011;5026;51.494;11.974;2023-09-19T04:46:40;2.08;;;1.65;;
9970;SDS011;5026;51.494;11.974;2023-09-19T04:49:07;4.18;;;1.77;;
9970;SDS011;5026;51.494;11.974;2023-09-19T04:51:34;4.10;;;1.50;;
9970;SDS011;5026;51.494;11.974;2023-09-19T04:54:04;3.05;;;1.98;;
9970;SDS011;5026;51.494;11.974;2023-09-19T04:56:31;2.78;;;1.75;;
9970;SDS011;5026;51.494;11.974;2023-09-19T04:58:58;4.25;;;2.03;;
9970;SDS011;5026;51.494;11.974;2023-09-19T05:01:26;3.03;;;1.67;;
9970;SDS011;5026;51.494;11.974;2023-09-19T05:03:53;3.00;;;2.40;;
9970;SDS011;5026;51.494;11.974;2023-09-19T05:06:20;9.38;;;2.03;;
9970;SDS011;5026;51.494;11.974;2023-09-19T05:08:47;4.18;;;1.80;;
9970;SDS011;5026;51.494;11.974;2023-09-19T05:11:17;1.85;;;1.60;;
9970;SDS011;5026;51.494;11.974;2023-09-19T05:13:45;3.30;;;1.77;;
9970;SDS011;5026;51.494;11.974;2023-09-19T05:16:11;2.00;;;1.50;;
9970;SDS011;5026;51.494;11.974;2023-09-19T05:18:38;5.07;;;1.90;;
9970;SDS011;5026;51.494;11.974;2023-09-19T05:21:06;2.85;;;1.70;;
9970;SDS011;5026;51.494;11.974;2023-09-19T05:23:33;5.50;;;1.58;;
9970;SDS011;5026;51.494;11.974;2023-09-19T05:26:02;2.58;;;1.70;;
9970;SDS011;5026;51.494;11.974;2023-09-19T05:28:31;4.05;;;1.85;;
9970;SDS011;5026;51.494;11.974;2023-09-19T05:31:00;5.50;;;2.10;;
9970;SDS011;5026;51.494;11.974;2023-09-19T05:33:27;7.82;;;2.20;;
9970;SDS011;5026;51.494;11.974;2023-09-19T05:35:56;5.28;;;2.80;;
9970;SDS011;5026;51.494;11.974;2023-09-19T05:38:23;2.42;;;1.70;;
9970;SDS011;5026;51.494;11.974;2023-09-19T05:40:51;5.22;;;1.67;;
9970;SDS011;5026;51.494;11.974;2023-09-19T05:43:19;4.57;;;1.55;;
9970;SDS011;5026;51.494;11.974;2023-09-19T05:45:47;4.13;;;2.13;;
9970;SDS011;5026;51.494;11.974;2023-09-19T05:48:17;2.85;;;1.88;;
9970;SDS011;5026;51.494;11.974;2023-09-19T05:50:46;4.43;;;1.77;;
9970;SDS011;5026;51.494;11.974;2023-09-19T05:53:13;2.05;;;1.70;;
9970;SDS011;5026;51.494;11.974;2023-09-19T05:55:41;2.80;;;1.80;;
9970;SDS011;5026;51.494;11.974;2023-09-19T05:58:08;3.17;;;1.52;;
9970;SDS011;5026;51.494;11.974;2023-09-19T06:00:35;4.25;;;1.70;;
9970;SDS011;5026;51.494;11.974;2023-09-19T06:03:03;3.75;;;1.48;;
9970;SDS011;5026;51.494;11.974;2023-09-19T06:05:30;4.75;;;1.58;;
9970;SDS011;5026;51.494;11.974;2023-09-19T06:07:58;4.95;;;1.77;;
9970;SDS011;5026;51.494;11.974;2023-09-19T06:10:25;2.67;;;1.92;;
9970;SDS011;5026;51.494;11.974;2023-09-19T06:12:52;3.60;;;1.60;;
9970;SDS011;5026;51.494;11.974;2023-09-19T06:15:20;3.22;;;1.08;;
9970;SDS011;5026;51.494;11.974;2023-09-19T06:17:48;2.47;;;1.45;;
9970;SDS011;5026;51.494;11.974;2023-09-19T06:20:17;2.53;;;1.35;;
9970;SDS011;5026;51.494;11.974;2023-09-19T06:22:45;2.88;;;1.40;;
9970;SDS011;5026;51.494;11.974;2023-09-19T06:25:12;3.72;;;1.30;;
9970;SDS011;5026;51.494;11.974;2023-09-19T06:27:44;3.78;;;1.30;;
9970;SDS011;5026;51.494;11.974;2023-09-19T06:30:11;3.40;;;1.70;;
9970;SDS011;5026;51.494;11.974;2023-09-19T06:32:39;4.55;;;1.50;;
9970;SDS011;5026;51.494;11.974;2023-09-19T06:35:09;3.22;;;1.48;;
9970;SDS011;5026;51.494;11.974;2023-09-19T06:37:37;1.80;;;1.10;;
9970;SDS011;5026;51.494;11.974;2023-09-19T06:40:07;2.35;;;1.15;;
9970;SDS011;5026;51.494;11.974;2023-09-19T06:42:38;2.85;;;1.20;;
9970;SDS011;5026;51.494;11.974;2023-09-19T06:45:07;3.88;;;1.38;;
9970;SDS011;5026;51.494;11.974;2023-09-19T06:47:36;4.70;;;1.20;;
9970;SDS011;5026;51.494;11.974;2023-09-19T06:50:03;1.88;;;1.20;;
9970;SDS011;5026;51.494;11.974;2023-09-19T06:52:34;2.05;;;1.30;;
9970;SDS011;5026;51.494;11.974;2023-09-19T06:55:02;0.95;;;0.95;;
9970;SDS011;5026;51.494;11.974;2023-09-19T06:57:31;3.40;;;1.60;;
9970;SDS011;5026;51.494;11.974;2023-09-19T06:59:58;5.50;;;1.45;;
9970;SDS011;5026;51.494;11.974;2023-09-19T07:02:26;2.65;;;1.23;;
9970;SDS011;5026;51.494;11.974;2023-09-19T07:04:53;3.00;;;1.20;;
9970;SDS011;5026;51.494;11.974;2023-09-19T07:07:20;3.50;;;1.90;;
9970;SDS011;5026;51.494;11.974;2023-09-19T07:09:47;3.78;;;1.52;;
9970;SDS011;5026;51.494;11.974;2023-09-19T07:12:15;6.80;;;1.50;;
9970;SDS011;5026;51.494;11.974;2023-09-19T07:14:43;1.88;;;1.70;;
9970;SDS011;5026;51.494;11.974;2023-09-19T07:17:10;2.70;;;1.63;;
9970;SDS011;5026;51.494;11.974;2023-09-19T07:19:36;3.50;;;1.50;;
9970;SDS011;5026;51.494;11.974;2023-09-19T07:22:03;4.20;;;1.45;;
9970;SDS011;5026;51.494;11.974;2023-09-19T07:24:33;3.03;;;1.67;;
9970;SDS011;5026;51.494;11.974;2023-09-19T07:27:01;1.95;;;1.42;;
9970;SDS011;5026;51.494;11.974;2023-09-19T07:29:31;2.88;;;1.65;;
9970;SDS011;5026;51.494;11.974;2023-09-19T07:31:58;3.35;;;1.58;;
9970;SDS011;5026;51.494;11.974;2023-09-19T07:34:25;2.38;;;1.55;;
9970;SDS011;5026;51.494;11.974;2023-09-19T07:36:52;4.63;;;1.80;;
9970;SDS011;5026;51.494;11.974;2023-09-19T07:39:19;2.42;;;1.35;;
9970;SDS011;5026;51.494;11.974;2023-09-19T07:41:46;3.88;;;1.90;;
9970;SDS011;5026;51.494;11.974;2023-09-19T07:44:13;3.97;;;1.25;;
9970;SDS011;5026;51.494;11.974;2023-09-19T07:46:42;4.13;;;1.63;;
9970;SDS011;5026;51.494;11.974;2023-09-19T07:49:09;3.67;;;1.50;;
9970;SDS011;5026;51.494;11.974;2023-09-19T07:51:36;4.82;;;1.20;;
9970;SDS011;5026;51.494;11.974;2023-09-19T07:54:03;3.65;;;1.40;;
9970;SDS011;5026;51.494;11.974;2023-09-19T07:56:30;5.85;;;2.30;;
9970;SDS011;5026;51.494;11.974;2023-09-19T07:58:57;3.50;;;1.20;;
9970;SDS011;5026;51.494;11.974;2023-09-19T08:01:24;2.92;;;1.42;;
9970;SDS011;5026;51.494;11.974;2023-09-19T08:03:53;3.55;;;1.33;;
9970;SDS011;5026;51.494;11.974;2023-09-19T08:06:20;6.55;;;1.75;;
9970;SDS011;5026;51.494;11.974;2023-09-19T08:08:50;3.97;;;1.70;;
9970;SDS011;5026;51.494;11.974;2023-09-19T08:11:18;2.60;;;1.42;;
9970;SDS011;5026;51.494;11.974;2023-09-19T08:13:46;3.90;;;1.50;;
9970;SDS011;5026;51.494;11.974;2023-09-19T08:16:14;5.35;;;1.70;;
9970;SDS011;5026;51.494;11.974;2023-09-19T08:18:41;3.30;;;1.17;;
9970;SDS011;5026;51.494;11.974;2023-09-19T08:21:11;2.38;;;1.40;;
9970;SDS011;5026;51.494;11.974;2023-09-19T08:23:39;2.90;;;1.40;;
9970;SDS011;5026;51.494;11.974;2023-09-19T08:26:07;4.15;;;1.77;;
9970;SDS011;5026;51.494;11.974;2023-09-19T08:28:34;3.13;;;1.20;;
9970;SDS011;5026;51.494;11.974;2023-09-19T08:31:02;4.82;;;1.60;;
9970;SDS011;5026;51.494;11.974;2023-09-19T08:33:31;4.28;;;1.52;;
9970;SDS011;5026;51.494;11.974;2023-09-19T08:35:58;6.03;;;1.77;;
9970;SDS011;5026;51.494;11.974;2023-09-19T08:38:26;5.20;;;1.50;;
9970;SDS011;5026;51.494;11.974;2023-09-19T08:40:56;3.70;;;1.23;;
9970;SDS011;5026;51.494;11.974;2023-09-19T08:43:24;5.57;;;1.42;;
9970;SDS011;5026;51.494;11.974;2023-09-19T08:45:53;4.43;;;1.63;;
9970;SDS011;5026;51.494;11.974;2023-09-19T08:48:29;3.97;;;1.63;;
9970;SDS011;5026;51.494;11.974;2023-09-19T08:50:59;4.35;;;1.75;;
9970;SDS011;5026;51.494;11.974;2023-09-19T08:53:34;3.13;;;1.75;;
9970;SDS011;5026;51.494;11.974;2023-09-19T08:56:08;3.78;;;1.70;;
9970;SDS011;5026;51.494;11.974;2023-09-19T08:58:39;3.97;;;1.73;;
9970;SDS011;5026;51.494;11.974;2023-09-19T09:01:12;3.13;;;1.63;;
9970;SDS011;5026;51.494;11.974;2023-09-19T09:03:41;3.95;;;1.77;;
9970;SDS011;5026;51.494;11.974;2023-09-19T09:06:12;3.97;;;1.50;;
9970;SDS011;5026;51.494;11.974;2023-09-19T09:08:43;4.82;;;1.50;;
9970;SDS011;5026;51.494;11.974;2023-09-19T09:11:10;5.65;;;1.90;;
9970;SDS011;5026;51.494;11.974;2023-09-19T09:13:37;4.55;;;1.90;;
9970;SDS011;5026;51.494;11.974;2023-09-19T09:16:06;4.97;;;1.70;;
9970;SDS011;5026;51.494;11.974;2023-09-19T09:18:35;2.03;;;1.80;;
9970;SDS011;5026;51.494;11.974;2023-09-19T09:21:02;1.60;;;1.33;;
9970;SDS011;5026;51.494;11.974;2023-09-19T09:23:29;4.63;;;1.73;;
9970;SDS011;5026;51.494;11.974;2023-09-19T09:25:59;2.70;;;1.70;;
9970;SDS011;5026;51.494;11.974;2023-09-19T09:28:30;3.78;;;1.45;;
9970;SDS011;5026;51.494;11.974;2023-09-19T09:30:59;1.77;;;1.65;;
9970;SDS011;5026;51.494;11.974;2023-09-19T09:33:27;4.32;;;1.50;;
9970;SDS011;5026;51.494;11.974;2023-09-19T09:35:56;2.33;;;1.50;;
9970;SDS011;5026;51.494;11.974;2023-09-19T09:38:26;3.47;;;1.38;;
9970;SDS011;5026;51.494;11.974;2023-09-19T09:41:00;2.55;;;1.30;;
9970;SDS011;5026;51.494;11.974;2023-09-19T09:43:32;4.07;;;1.83;;
9970;SDS011;5026;51.494;11.974;2023-09-19T09:46:07;5.07;;;1.80;;
9970;SDS011;5026;51.494;11.974;2023-09-19T09:48:56;4.70;;;2.03;;
9970;SDS011;5026;51.494;11.974;2023-09-19T09:51:44;4.88;;;1.60;;
9970;SDS011;5026;51.494;11.974;2023-09-19T09:54:23;2.53;;;1.40;;
9970;SDS011;5026;51.494;11.974;2023-09-19T09:56:54;2.67;;;1.58;;
9970;SDS011;5026;51.494;11.974;2023-09-19T10:02:11;3.40;;;1.60;;
9970;SDS011;5026;51.494;11.974;2023-09-19T10:04:40;4.78;;;1.75;;
9970;SDS011;5026;51.494;11.974;2023-09-19T10:07:24;1.70;;;1.48;;
9970;SDS011;5026;51.494;11.974;2023-09-19T10:09:57;4.88;;;1.85;;
9970;SDS011;5026;51.494;11.974;2023-09-19T10:12:36;3.90;;;1.38;;
9970;SDS011;5026;51.494;11.974;2023-09-19T10:15:08;5.05;;;1.58;;
9970;SDS011;5026;51.494;11.974;2023-09-19T10:17:42;5.80;;;2.17;;
9970;SDS011;5026;51.494;11.974;2023-09-19T10:20:12;5.47;;;2.20;;
9970;SDS011;5026;51.494;11.974;2023-09-19T10:23:06;5.90;;;2.10;;
9970;SDS011;5026;51.494;11.974;2023-09-19T10:25:38;4.55;;;2.20;;
9970;SDS011;5026;51.494;11.974;2023-09-19T10:28:07;4.00;;;1.88;;
9970;SDS011;5026;51.494;11.974;2023-09-19T10:30:37;2.95;;;1.40;;
9970;SDS011;5026;51.494;11.974;2023-09-19T10:33:10;2.40;;;1.30;;
9970;SDS011;5026;51.494;11.974;2023-09-19T10:35:38;3.10;;;1.80;;
9970;SDS011;5026;51.494;11.974;2023-09-19T10:38:06;5.15;;;1.98;;
9970;SDS011;5026;51.494;11.974;2023-09-19T10:40:35;3.75;;;1.55;;
9970;SDS011;5026;51.494;11.974;2023-09-19T10:43:11;3.25;;;1.60;;
9970;SDS011;5026;51.494;11.974;2023-09-19T10:45:39;2.38;;;1.73;;
9970;SDS011;5026;51.494;11.974;2023-09-19T10:48:09;3.55;;;1.50;;
9970;SDS011;5026;51.494;11.974;2023-09-19T10:50:41;3.25;;;1.92;;
9970;SDS011;5026;51.494;11.974;2023-09-19T10:53:11;3.40;;;1.58;;
9970;SDS011;5026;51.494;11.974;2023-09-19T10:55:40;4.28;;;1.70;;
9970;SDS011;5026;51.494;11.974;2023-09-19T10:58:16;3.58;;;1.42;;
9970;SDS011;5026;51.494;11.974;2023-09-19T11:00:54;4.32;;;1.90;;
9970;SDS011;5026;51.494;11.974;2023-09-19T11:03:22;4.10;;;1.58;;
9970;SDS011;5026;51.494;11.974;2023-09-19T11:06:08;2.97;;;1.73;;
9970;SDS011;5026;51.494;11.974;2023-09-19T11:08:51;1.60;;;1.30;;
9970;SDS011;5026;51.494;11.974;2023-09-19T11:14:32;3.15;;;1.75;;
9970;SDS011;5026;51.494;11.974;2023-09-19T11:17:30;3.10;;;1.73;;
9970;SDS011;5026;51.494;11.974;2023-09-19T11:23:21;5.13;;;2.05;;
9970;SDS011;5026;51.494;11.974;2023-09-19T11:25:49;4.53;;;1.40;;
9970;SDS011;5026;51.494;11.974;2023-09-19T11:28:31;3.72;;;1.90;;
9970;SDS011;5026;51.494;11.974;2023-09-19T11:31:40;8.90;;;1.80;;
9970;SDS011;5026;51.494;11.974;2023-09-19T11:40:34;4.35;;;1.52;;
9970;SDS011;5026;51.494;11.974;2023-09-19T11:43:06;5.78;;;1.83;;
9970;SDS011;5026;51.494;11.974;2023-09-19T11:46:05;1.98;;;1.52;;
9970;SDS011;5026;51.494;11.974;2023-09-19T11:48:32;2.13;;;1.25;;
9970;SDS011;5026;51.494;11.974;2023-09-19T11:51:05;2.47;;;1.63;;
9970;SDS011;5026;51.494;11.974;2023-09-19T11:53:47;3.50;;;1.50;;
9970;SDS011;5026;51.494;11.974;2023-09-19T11:56:17;4.35;;;1.88;;
9970;SDS011;5026;51.494;11.974;2023-09-19T11:58:46;6.95;;;2.10;;
9970;SDS011;5026;51.494;11.974;2023-09-19T12:01:21;3.30;;;1.17;;
9970;SDS011;5026;51.494;11.974;2023-09-19T12:03:52;3.97;;;1.38;;
9970;SDS011;5026;51.494;11.974;2023-09-19T12:06:22;2.10;;;1.30;;
9970;SDS011;5026;51.494;11.974;2023-09-19T12:08:50;5.03;;;1.40;;
9970;SDS011;5026;51.494;11.974;2023-09-19T12:11:20;2.75;;;1.50;;
9970;SDS011;5026;51.494;11.974;2023-09-19T12:13:49;5.63;;;1.40;;
9970;SDS011;5026;51.494;11.974;2023-09-19T12:16:18;3.60;;;1.35;;
9970;SDS011;5026;51.494;11.974;2023-09-19T12:18:48;3.58;;;1.88;;
9970;SDS011;5026;51.494;11.974;2023-09-19T12:21:22;6.90;;;1.85;;
9970;SDS011;5026;51.494;11.974;2023-09-19T12:23:59;5.57;;;1.65;;
9970;SDS011;5026;51.494;11.974;2023-09-19T12:26:41;2.58;;;1.33;;
9970;SDS011;5026;51.494;11.974;2023-09-19T12:29:13;5.03;;;1.38;;
9970;SDS011;5026;51.494;11.974;2023-09-19T12:31:49;4.28;;;1.98;;
9970;SDS011;5026;51.494;11.974;2023-09-19T12:34:19;2.58;;;1.50;;
9970;SDS011;5026;51.494;11.974;2023-09-19T12:36:47;4.82;;;1.70;;
9970;SDS011;5026;51.494;11.974;2023-09-19T12:39:23;5.40;;;1.45;;
9970;SDS011;5026;51.494;11.974;2023-09-19T12:41:53;4.10;;;1.75;;
9970;SDS011;5026;51.494;11.974;2023-09-19T12:44:20;10.45;;;2.00;;
9970;SDS011;5026;51.494;11.974;2023-09-19T12:46:50;5.40;;;1.77;;
9970;SDS011;5026;51.494;11.974;2023-09-19T12:49:19;3.08;;;1.70;;
9970;SDS011;5026;51.494;11.974;2023-09-19T12:51:48;3.05;;;1.80;;
9970;SDS011;5026;51.494;11.974;2023-09-19T12:54:17;4.15;;;1.75;;
9970;SDS011;5026;51.494;11.974;2023-09-19T12:56:44;2.28;;;1.70;;
9970;SDS011;5026;51.494;11.974;2023-09-19T12:59:15;3.70;;;2.20;;
9970;SDS011;5026;51.494;11.974;2023-09-19T13:01:42;3.92;;;1.95;;
9970;SDS011;5026;51.494;11.974;2023-09-19T13:04:15;4.68;;;2.10;;
9970;SDS011;5026;51.494;11.974;2023-09-19T13:06:51;3.05;;;2.00;;
9970;SDS011;5026;51.494;11.974;2023-09-19T13:09:20;6.13;;;1.92;;
9970;SDS011;5026;51.494;11.974;2023-09-19T13:11:49;3.78;;;1.90;;
9970;SDS011;5026;51.494;11.974;2023-09-19T13:14:20;4.90;;;2.10;;
9970;SDS011;5026;51.494;11.974;2023-09-19T13:16:53;2.30;;;1.77;;
9970;SDS011;5026;51.494;11.974;2023-09-19T13:19:34;5.40;;;1.95;;
9970;SDS011;5026;51.494;11.974;2023-09-19T13:25:04;4.38;;;2.20;;
9970;SDS011;5026;51.494;11.974;2023-09-19T13:27:33;5.30;;;2.40;;
9970;SDS011;5026;51.494;11.974;2023-09-19T13:30:01;3.35;;;2.10;;
9970;SDS011;5026;51.494;11.974;2023-09-19T13:32:31;2.10;;;1.50;;
9970;SDS011;5026;51.494;11.974;2023-09-19T13:34:58;5.47;;;1.80;;
9970;SDS011;5026;51.494;11.974;2023-09-19T13:37:25;3.67;;;2.20;;
9970;SDS011;5026;51.494;11.974;2023-09-19T13:39:52;4.55;;;2.08;;
9970;SDS011;5026;51.494;11.974;2023-09-19T13:42:19;3.42;;;1.92;;
9970;SDS011;5026;51.494;11.974;2023-09-19T13:44:47;4.38;;;2.13;;
9970;SDS011;5026;51.494;11.974;2023-09-19T13:47:15;6.03;;;2.22;;
9970;SDS011;5026;51.494;11.974;2023-09-19T13:49:49;7.53;;;2.30;;
9970;SDS011;5026;51.494;11.974;2023-09-19T13:52:17;5.72;;;2.40;;
9970;SDS011;5026;51.494;11.974;2023-09-19T13:54:44;3.95;;;2.42;;
9970;SDS011;5026;51.494;11.974;2023-09-19T13:57:11;4.50;;;1.95;;
9970;SDS011;5026;51.494;11.974;2023-09-19T13:59:39;5.93;;;2.05;;
9970;SDS011;5026;51.494;11.974;2023-09-19T14:02:05;4.20;;;2.47;;
9970;SDS011;5026;51.494;11.974;2023-09-19T14:04:39;6.63;;;2.35;;
9970;SDS011;5026;51.494;11.974;2023-09-19T14:07:08;4.32;;;2.38;;
9970;SDS011;5026;51.494;11.974;2023-09-19T14:09:36;6.30;;;2.28;;
9970;SDS011;5026;51.494;11.974;2023-09-19T14:12:03;4.80;;;2.45;;
9970;SDS011;5026;51.494;11.974;2023-09-19T14:14:30;6.80;;;2.58;;
9970;SDS011;5026;51.494;11.974;2023-09-19T14:16:57;6.82;;;2.30;;
9970;SDS011;5026;51.494;11.974;2023-09-19T14:19:25;5.95;;;2.47;;
9970;SDS011;5026;51.494;11.974;2023-09-19T14:21:55;3.83;;;2.13;;
9970;SDS011;5026;51.494;11.974;2023-09-19T14:24:22;3.72;;;2.28;;
9970;SDS011;5026;51.494;11.974;2023-09-19T14:26:49;6.97;;;2.20;;
9970;SDS011;5026;51.494;11.974;2023-09-19T14:29:16;7.53;;;2.50;;
9970;SDS011;5026;51.494;11.974;2023-09-19T14:31:44;5.07;;;2.47;;
9970;SDS011;5026;51.494;11.974;2023-09-19T14:34:11;5.25;;;2.72;;
9970;SDS011;5026;51.494;11.974;2023-09-19T14:36:40;4.97;;;2.30;;
9970;SDS011;5026;51.494;11.974;2023-09-19T14:39:08;4.18;;;2.15;;
9970;SDS011;5026;51.494;11.974;2023-09-19T14:41:35;5.82;;;2.20;;
9970;SDS011;5026;51.494;11.974;2023-09-19T14:44:02;5.78;;;2.63;;
9970;SDS011;5026;51.494;11.974;2023-09-19T14:46:30;4.82;;;1.80;;
9970;SDS011;5026;51.494;11.974;2023-09-19T14:48:57;5.95;;;2.00;;
9970;SDS011;5026;51.494;11.974;2023-09-19T14:51:25;4.35;;;2.17;;
9970;SDS011;5026;51.494;11.974;2023-09-19T14:53:52;5.15;;;2.03;;
9970;SDS011;5026;51.494;11.974;2023-09-19T14:56:21;4.97;;;2.08;;
9970;SDS011;5026;51.494;11.974;2023-09-19T14:58:49;4.38;;;2.50;;
9970;SDS011;5026;51.494;11.974;2023-09-19T15:01:16;4.15;;;2.10;;
9970;SDS011;5026;51.494;11.974;2023-09-19T15:03:44;5.78;;;2.33;;
9970;SDS011;5026;51.494;11.974;2023-09-19T15:06:11;3.15;;;2.10;;
9970;SDS011;5026;51.494;11.974;2023-09-19T15:08:39;3.78;;;2.05;;
9970;SDS011;5026;51.494;11.974;2023-09-19T15:11:10;4.53;;;2.35;;
9970;SDS011;5026;51.494;11.974;2023-09-19T15:13:39;5.90;;;2.25;;
9970;SDS011;5026;51.494;11.974;2023-09-19T15:16:07;6.18;;;2.50;;
9970;SDS011;5026;51.494;11.974;2023-09-19T15:18:35;3.00;;;2.10;;
9970;SDS011;5026;51.494;11.974;2023-09-19T15:21:04;6.40;;;2.30;;
9970;SDS011;5026;51.494;11.974;2023-09-19T15:23:31;4.75;;;2.05;;
9970;SDS011;5026;51.494;11.974;2023-09-19T15:25:59;8.80;;;2.40;;
9970;SDS011;5026;51.494;11.974;2023-09-19T15:28:26;6.25;;;2.70;;
9970;SDS011;5026;51.494;11.974;2023-09-19T15:30:58;5.05;;;2.08;;
9970;SDS011;5026;51.494;11.974;2023-09-19T15:33:26;6.13;;;2.45;;
9970;SDS011;5026;51.494;11.974;2023-09-19T15:35:59;4.35;;;2.58;;
9970;SDS011;5026;51.494;11.974;2023-09-19T15:38:28;5.28;;;2.20;;